Time;durP1;ratioP1;P1;durP2;ratioP2;P2;SDS_P1;SDS_P2;PMS_P1;PMS_P2;Temp;Humidity;BMP_temperature;BMP_pressure;BME280_temperature;BME280_humidity;BME280_pressure;Samples;Min_cycle;Max_cycle;Signal;HPM_P1;HPM_P2
2024/04/11 00:02:15;;;;;;;6.78;3.90;;;6.60;87.50;;;;;;5400885;26;20313;-76
2024/04/11 00:04:41;;;;;;;4.82;3.55;;;6.60;87.80;;;;;;5416016;26;20357;-76
2024/04/11 00:07:10;;;;;;;4.07;3.15;;;6.50;88.90;;;;;;5416237;26;20814;-77
2024/04/11 00:09:37;;;;;;;4.97;3.50;;;6.50;88.50;;;;;;5417790;26;20275;-76
2024/04/11 00:12:08;;;;;;;6.22;3.53;;;6.50;86.50;;;;;;5440718;26;20259;-76
2024/04/11 00:14:35;;;;;;;3.80;2.92;;;6.60;86.30;;;;;;5413957;26;20278;-76
2024/04/11 00:17:04;;;;;;;7.07;3.13;;;6.60;86.70;;;;;;5424812;26;20379;-76
2024/04/11 00:19:30;;;;;;;6.50;3.45;;;6.70;86.20;;;;;;5416144;26;20292;-76
2024/04/11 00:21:59;;;;;;;4.22;3.70;;;6.70;85.50;;;;;;5416993;26;20249;-76
2024/04/11 00:24:26;;;;;;;3.70;3.40;;;6.80;85.00;;;;;;5422760;26;20286;-76
2024/04/11 00:26:55;;;;;;;6.65;4.18;;;6.80;84.90;;;;;;5424250;26;20245;-76
2024/04/11 00:29:24;;;;;;;5.05;3.88;;;6.90;84.90;;;;;;5411519;26;20260;-76
2024/04/11 00:31:54;;;;;;;6.07;3.47;;;6.90;84.40;;;;;;5428739;26;20291;-76
2024/04/11 00:34:23;;;;;;;4.07;3.45;;;6.90;84.30;;;;;;5418930;26;20267;-76
2024/04/11 00:36:53;;;;;;;5.15;3.92;;;7.00;84.20;;;;;;5435931;26;20781;-76
2024/04/11 00:39:20;;;;;;;4.63;3.25;;;7.00;84.10;;;;;;5431248;26;20671;-76
2024/04/11 00:41:50;;;;;;;6.75;4.03;;;7.00;83.90;;;;;;5410807;26;20402;-76
2024/04/11 00:44:17;;;;;;;6.15;3.65;;;6.90;83.90;;;;;;5433136;26;20344;-76
2024/04/11 00:46:51;;;;;;;5.55;4.15;;;6.90;84.00;;;;;;5409953;26;20237;-76
2024/04/11 00:49:19;;;;;;;5.57;3.35;;;6.90;84.10;;;;;;5417353;26;20263;-76
2024/04/11 00:51:48;;;;;;;4.03;2.67;;;6.90;84.30;;;;;;5417991;26;20240;-76
2024/04/11 00:54:16;;;;;;;5.45;3.60;;;6.90;84.40;;;;;;5414062;26;20319;-76
2024/04/11 00:56:45;;;;;;;6.82;3.78;;;6.90;84.00;;;;;;5428732;26;20288;-76
2024/04/11 00:59:14;;;;;;;8.05;3.30;;;6.90;84.30;;;;;;5423189;26;20266;-76
2024/04/11 01:01:44;;;;;;;6.20;4.00;;;6.90;84.90;;;;;;5425203;26;20244;-76
2024/04/11 01:04:13;;;;;;;8.35;3.42;;;6.90;84.40;;;;;;5432131;26;20271;-77
2024/04/11 01:09:27;;;;;;;6.18;4.05;;;6.80;85.40;;;;;;5370447;26;20252;-76
2024/04/11 01:11:53;;;;;;;4.38;3.08;;;6.60;86.80;;;;;;5411722;26;20273;-76
2024/04/11 01:14:22;;;;;;;7.43;3.60;;;6.50;87.40;;;;;;5434118;26;20248;-76
2024/04/11 01:16:48;;;;;;;4.30;3.90;;;6.40;88.10;;;;;;5434962;26;20296;-76
2024/04/11 01:19:23;;;;;;;6.22;3.75;;;6.30;88.50;;;;;;5417910;26;20263;-76
2024/04/11 01:21:50;;;;;;;6.00;4.05;;;6.10;87.90;;;;;;5429984;26;20244;-76
2024/04/11 01:24:21;;;;;;;6.55;3.55;;;6.00;89.50;;;;;;5436655;26;20675;-76
2024/04/11 01:26:48;;;;;;;4.95;3.97;;;5.90;90.40;;;;;;5428780;26;20253;-76
2024/04/11 01:29:17;;;;;;;8.77;4.90;;;5.80;90.70;;;;;;5405455;26;20656;-76
2024/04/11 01:31:44;;;;;;;3.63;3.30;;;5.70;90.80;;;;;;5437201;26;20991;-76
2024/04/11 01:34:14;;;;;;;7.25;3.65;;;5.70;91.00;;;;;;5430069;26;20349;-76
2024/04/11 01:36:42;;;;;;;6.43;4.05;;;5.70;90.80;;;;;;5431249;26;20256;-76
2024/04/11 01:39:12;;;;;;;4.75;3.60;;;5.80;90.80;;;;;;5426007;26;20282;-76
2024/04/11 01:41:41;;;;;;;6.47;4.00;;;5.90;90.30;;;;;;5419300;26;21002;-76
2024/04/11 01:44:11;;;;;;;3.45;3.15;;;5.90;90.30;;;;;;5430918;26;20260;-76
2024/04/11 01:46:38;;;;;;;4.70;4.00;;;5.90;90.00;;;;;;5428616;26;20248;-76
2024/04/11 01:49:08;;;;;;;4.70;3.88;;;5.90;89.60;;;;;;5429660;26;20717;-76
2024/04/11 01:51:35;;;;;;;4.15;3.75;;;5.90;89.40;;;;;;5414540;26;20322;-76
2024/04/11 01:54:06;;;;;;;5.45;3.55;;;5.80;89.10;;;;;;5416247;26;20240;-76
2024/04/11 01:56:34;;;;;;;5.68;4.28;;;5.80;89.30;;;;;;5412893;26;20689;-76
2024/04/11 01:59:08;;;;;;;4.20;3.90;;;5.80;89.40;;;;;;5425965;26;20253;-76
2024/04/11 02:01:38;;;;;;;5.68;4.18;;;5.90;88.90;;;;;;5414024;26;20841;-76
2024/04/11 02:04:09;;;;;;;8.48;4.57;;;5.90;89.00;;;;;;5444337;26;20243;-76
2024/04/11 02:06:38;;;;;;;5.97;3.80;;;5.80;89.90;;;;;;5428817;26;20289;-76
2024/04/11 02:09:09;;;;;;;10.13;4.25;;;5.80;89.70;;;;;;5413308;26;20249;-76
2024/04/11 02:11:40;;;;;;;6.82;4.95;;;5.80;90.50;;;;;;5416864;26;20237;-76
2024/04/11 02:14:12;;;;;;;4.43;4.03;;;5.70;90.80;;;;;;5408814;26;20283;-76
2024/04/11 02:16:39;;;;;;;5.20;4.55;;;5.60;91.00;;;;;;5393494;26;20331;-76
2024/04/11 02:19:12;;;;;;;5.75;4.47;;;5.60;91.00;;;;;;5421787;26;20275;-76
2024/04/11 02:21:40;;;;;;;6.00;4.15;;;5.60;91.10;;;;;;5421918;26;20298;-76
2024/04/11 02:24:11;;;;;;;8.68;5.00;;;5.50;91.30;;;;;;5417293;26;20241;-76
2024/04/11 02:26:38;;;;;;;6.25;3.92;;;5.50;91.40;;;;;;5433158;26;20252;-76
2024/04/11 02:29:08;;;;;;;6.63;5.32;;;5.40;91.30;;;;;;5415422;26;20376;-76
2024/04/11 02:31:37;;;;;;;6.95;4.78;;;5.30;91.80;;;;;;5414796;26;20240;-76
2024/04/11 02:34:07;;;;;;;4.32;3.90;;;5.40;92.50;;;;;;5428831;26;20241;-76
2024/04/11 02:36:35;;;;;;;5.15;4.70;;;5.40;92.20;;;;;;5416829;26;20264;-76
2024/04/11 02:39:07;;;;;;;8.40;5.00;;;5.40;91.50;;;;;;5420615;26;20337;-76
2024/04/11 02:41:37;;;;;;;5.40;4.55;;;5.40;91.20;;;;;;5420414;26;20235;-76
2024/04/11 02:44:07;;;;;;;6.63;4.15;;;5.40;91.00;;;;;;5439446;26;20338;-76
2024/04/11 02:46:39;;;;;;;4.43;4.03;;;5.40;91.60;;;;;;5422265;26;20240;-76
2024/04/11 02:49:09;;;;;;;9.75;4.63;;;5.40;92.40;;;;;;5428469;26;20248;-76
2024/04/11 02:51:36;;;;;;;7.40;4.63;;;5.40;92.70;;;;;;5420878;26;20237;-76
2024/04/11 02:54:05;;;;;;;5.57;4.07;;;5.40;92.80;;;;;;5417109;26;20244;-76
2024/04/11 02:56:33;;;;;;;5.75;3.90;;;5.30;92.90;;;;;;5422897;26;20242;-76
2024/04/11 02:59:04;;;;;;;4.40;4.10;;;5.30;92.60;;;;;;5419400;26;20274;-76
2024/04/11 03:01:31;;;;;;;4.97;4.00;;;5.30;92.80;;;;;;5401881;26;20253;-76
2024/04/11 03:04:03;;;;;;;5.55;4.47;;;5.30;92.90;;;;;;5436305;26;20294;-76
2024/04/11 03:06:31;;;;;;;3.80;3.50;;;5.30;92.20;;;;;;5434061;26;20259;-76
2024/04/11 03:09:00;;;;;;;6.55;4.10;;;5.30;92.20;;;;;;5421062;26;20277;-76
2024/04/11 03:11:27;;;;;;;5.43;4.20;;;5.30;92.60;;;;;;5418835;26;20356;-76
2024/04/11 03:13:58;;;;;;;4.30;3.88;;;5.30;92.10;;;;;;5429077;26;20603;-76
2024/04/11 03:16:26;;;;;;;4.68;3.75;;;5.30;91.70;;;;;;5415926;26;20657;-76
2024/04/11 03:18:56;;;;;;;5.20;4.20;;;5.30;91.50;;;;;;5422648;26;20559;-76
2024/04/11 03:21:25;;;;;;;6.90;4.75;;;5.30;91.70;;;;;;5420705;26;20244;-76
2024/04/11 03:23:54;;;;;;;4.93;3.53;;;5.30;91.70;;;;;;5423710;26;20281;-76
2024/04/11 03:26:20;;;;;;;4.22;3.90;;;5.30;91.60;;;;;;5425394;26;20643;-76
2024/04/11 03:28:49;;;;;;;5.75;3.80;;;5.30;91.50;;;;;;5422185;26;20292;-76
2024/04/11 03:31:18;;;;;;;4.57;3.90;;;5.30;91.50;;;;;;5445373;26;21045;-76
2024/04/11 03:33:50;;;;;;;5.25;3.92;;;5.30;91.60;;;;;;5418012;26;20235;-76
2024/04/11 03:36:19;;;;;;;6.15;4.03;;;5.30;92.00;;;;;;5419658;26;20790;-76
2024/04/11 03:38:54;;;;;;;8.50;4.13;;;5.40;92.20;;;;;;5415112;26;20287;-76
2024/04/11 03:41:20;;;;;;;5.70;4.40;;;5.40;92.00;;;;;;5419892;26;20671;-76
2024/04/11 03:43:54;;;;;;;10.15;4.43;;;5.50;91.70;;;;;;5430464;26;20274;-76
2024/04/11 03:46:24;;;;;;;4.72;3.90;;;5.50;91.60;;;;;;5419158;26;20253;-76
2024/04/11 03:48:55;;;;;;;6.00;4.40;;;5.40;91.40;;;;;;5422480;26;20610;-76
2024/04/11 03:51:27;;;;;;;4.00;3.70;;;5.40;91.40;;;;;;5432815;26;20610;-76
2024/04/11 03:53:56;;;;;;;5.18;4.10;;;5.50;91.40;;;;;;5424471;26;20244;-76
2024/04/11 03:56:27;;;;;;;4.13;3.75;;;5.40;91.80;;;;;;5416267;26;20255;-76
2024/04/11 03:58:57;;;;;;;4.80;3.28;;;5.40;91.40;;;;;;5412084;26;20236;-76
2024/04/11 04:01:27;;;;;;;3.97;3.30;;;5.20;91.30;;;;;;5428029;26;20244;-76
2024/04/11 04:04:02;;;;;;;5.07;4.10;;;5.20;91.80;;;;;;5422493;26;20244;-76
2024/04/11 04:06:33;;;;;;;5.95;3.85;;;5.10;91.70;;;;;;5427620;26;20822;-76
2024/04/11 04:09:07;;;;;;;5.35;4.20;;;5.10;92.20;;;;;;5412236;26;20764;-76
2024/04/11 04:11:38;;;;;;;4.05;3.65;;;5.10;91.70;;;;;;5420206;26;20247;-76
2024/04/11 04:14:08;;;;;;;7.10;3.60;;;5.00;91.60;;;;;;5417515;26;20271;-76
2024/04/11 04:16:38;;;;;;;13.13;4.28;;;5.00;92.30;;;;;;5403764;26;20280;-76
2024/04/11 04:19:05;;;;;;;7.18;3.72;;;5.00;92.20;;;;;;5431975;26;20247;-76
2024/04/11 04:21:35;;;;;;;6.32;3.80;;;4.90;92.60;;;;;;5416968;26;20235;-76
2024/04/11 04:24:05;;;;;;;6.85;4.38;;;4.90;92.00;;;;;;5414033;26;20271;-76
2024/04/11 04:26:34;;;;;;;5.03;4.00;;;4.90;92.70;;;;;;5402048;26;20691;-76
2024/04/11 04:29:00;;;;;;;6.90;4.20;;;4.90;92.00;;;;;;5414248;26;20243;-76
2024/04/11 04:31:31;;;;;;;7.53;4.50;;;4.90;91.60;;;;;;5446624;26;20290;-76
2024/04/11 04:33:58;;;;;;;4.28;3.78;;;4.90;91.40;;;;;;5420004;26;20732;-76
2024/04/11 04:36:28;;;;;;;8.77;3.50;;;4.90;91.30;;;;;;5424349;26;20757;-76
2024/04/11 04:38:56;;;;;;;6.38;3.80;;;4.80;91.90;;;;;;5410468;26;20716;-75
2024/04/11 04:41:29;;;;;;;8.00;4.63;;;4.80;92.70;;;;;;5410514;26;20295;-74
2024/04/11 04:43:56;;;;;;;5.32;3.75;;;4.80;92.90;;;;;;5419734;26;20391;-75
2024/04/11 04:46:28;;;;;;;5.20;4.03;;;4.90;93.10;;;;;;5408738;26;20247;-75
2024/04/11 04:48:55;;;;;;;6.10;4.85;;;4.90;92.40;;;;;;5434101;26;20330;-75
2024/04/11 04:51:26;;;;;;;6.03;4.25;;;5.00;92.00;;;;;;5418078;26;20241;-74
2024/04/11 04:53:53;;;;;;;5.15;4.68;;;5.10;91.80;;;;;;5411762;26;20240;-74
2024/04/11 04:56:24;;;;;;;7.88;4.50;;;5.20;91.60;;;;;;5423606;26;20255;-74
2024/04/11 04:58:53;;;;;;;11.95;6.40;;;5.20;91.40;;;;;;5412472;26;20259;-74
2024/04/11 05:01:26;;;;;;;8.20;5.00;;;5.20;91.80;;;;;;5416426;26;20470;-75
2024/04/11 05:03:53;;;;;;;6.57;4.30;;;5.20;92.40;;;;;;5412644;26;20574;-75
2024/04/11 05:06:22;;;;;;;5.32;4.80;;;5.00;92.40;;;;;;5414001;26;20244;-75
2024/04/11 05:08:53;;;;;;;5.70;4.63;;;4.90;92.70;;;;;;5428264;26;20249;-74
2024/04/11 05:11:22;;;;;;;5.60;4.47;;;4.90;92.60;;;;;;5412458;26;20247;-74
2024/04/11 05:13:53;;;;;;;4.63;4.22;;;5.10;92.60;;;;;;5415558;26;20256;-75
2024/04/11 05:16:22;;;;;;;6.45;4.75;;;5.10;92.70;;;;;;5417410;26;20246;-76
2024/04/11 05:18:49;;;;;;;5.20;4.70;;;5.10;92.70;;;;;;5413204;26;20303;-76
2024/04/11 05:21:24;;;;;;;7.60;5.32;;;5.00;93.00;;;;;;5415511;26;20262;-75
2024/04/11 05:23:50;;;;;;;5.53;4.32;;;5.00;93.20;;;;;;5412709;26;20290;-76
2024/04/11 05:26:23;;;;;;;4.78;4.28;;;5.10;93.10;;;;;;5416991;26;20327;-75
2024/04/11 05:28:53;;;;;;;7.63;4.22;;;5.00;93.00;;;;;;5421293;26;20369;-75
2024/04/11 05:31:25;;;;;;;6.05;4.78;;;5.10;93.00;;;;;;5416780;26;20288;-75
2024/04/11 05:33:53;;;;;;;8.40;5.70;;;5.20;93.00;;;;;;5414275;26;20637;-75
2024/04/11 05:36:25;;;;;;;5.75;5.22;;;5.30;92.80;;;;;;5414271;26;20364;-79
2024/04/11 05:38:51;;;;;;;6.25;4.25;;;5.40;92.80;;;;;;5407689;26;20283;-73
2024/04/11 05:41:20;;;;;;;5.00;4.30;;;5.50;93.10;;;;;;5411951;26;20237;-74
2024/04/11 05:43:49;;;;;;;6.07;4.85;;;5.50;93.10;;;;;;5404258;26;20256;-75
2024/04/11 05:46:22;;;;;;;7.70;4.60;;;5.70;92.70;;;;;;5409513;26;20337;-72
2024/04/11 05:48:49;;;;;;;7.53;6.80;;;5.80;92.50;;;;;;5416454;26;20788;-73
2024/04/11 05:51:20;;;;;;;5.82;4.63;;;6.00;92.00;;;;;;5412054;26;20568;-72
2024/04/11 05:53:47;;;;;;;6.45;4.80;;;6.10;91.70;;;;;;5413373;26;20270;-73
2024/04/11 05:56:17;;;;;;;6.80;5.00;;;6.20;91.60;;;;;;5401522;26;20284;-72
2024/04/11 05:58:45;;;;;;;6.47;4.93;;;6.20;91.40;;;;;;5412852;26;20620;-75
2024/04/11 06:01:16;;;;;;;8.63;5.43;;;6.30;91.50;;;;;;5412695;26;20408;-75
2024/04/11 06:03:50;;;;;;;7.22;5.72;;;6.40;91.00;;;;;;5396427;26;20291;-77
2024/04/11 06:06:19;;;;;;;5.10;4.70;;;6.60;90.30;;;;;;5398758;26;20245;-76
2024/04/11 06:08:50;;;;;;;8.88;6.20;;;6.60;90.40;;;;;;5403599;26;20687;-77
2024/04/11 06:11:17;;;;;;;6.20;5.60;;;6.50;90.60;;;;;;5412972;26;20291;-75
2024/04/11 06:13:47;;;;;;;7.18;5.90;;;6.60;90.80;;;;;;5406301;26;20268;-75
2024/04/11 06:16:14;;;;;;;8.23;5.65;;;6.70;91.40;;;;;;5396684;26;20246;-76
2024/04/11 06:18:43;;;;;;;7.25;5.00;;;6.70;90.70;;;;;;5403999;26;20328;-76
2024/04/11 06:21:12;;;;;;;6.28;5.78;;;6.80;90.80;;;;;;5400611;26;20241;-76
2024/04/11 06:23:41;;;;;;;6.97;5.05;;;7.10;90.70;;;;;;5422650;26;20245;-76
2024/04/11 06:26:11;;;;;;;9.48;5.40;;;7.30;90.20;;;;;;5430953;26;20244;-76
2024/04/11 06:28:39;;;;;;;7.65;6.20;;;7.50;89.80;;;;;;5433956;26;20485;-76
2024/04/11 06:31:07;;;;;;;6.15;4.65;;;7.60;88.00;;;;;;5436291;26;20236;-76
2024/04/11 06:33:40;;;;;;;12.60;5.13;;;7.70;87.20;;;;;;5422348;26;20237;-79
2024/04/11 06:36:07;;;;;;;4.55;4.15;;;7.80;87.40;;;;;;5423623;26;20363;-76
2024/04/11 06:38:39;;;;;;;5.40;4.50;;;7.90;87.10;;;;;;5429466;26;20264;-76
2024/04/11 06:41:08;;;;;;;8.85;4.63;;;8.10;86.70;;;;;;5421983;26;20276;-75
2024/04/11 06:43:37;;;;;;;7.10;4.95;;;8.20;85.50;;;;;;5418668;26;20285;-76
2024/04/11 06:46:06;;;;;;;7.03;5.30;;;8.30;86.10;;;;;;5400422;26;20241;-76
2024/04/11 06:48:35;;;;;;;6.07;5.07;;;8.40;87.20;;;;;;5415322;26;20245;-76
2024/04/11 06:51:02;;;;;;;6.70;4.60;;;8.70;86.80;;;;;;5409464;26;20283;-76
2024/04/11 06:53:30;;;;;;;5.87;4.40;;;8.80;86.50;;;;;;5412021;26;20559;-75
2024/04/11 06:55:59;;;;;;;13.20;5.10;;;8.90;86.70;;;;;;5413120;26;20596;-75
2024/04/11 06:58:28;;;;;;;8.47;5.27;;;9.00;86.50;;;;;;5415329;26;20563;-76
2024/04/11 07:00:58;;;;;;;7.60;3.60;;;8.90;85.70;;;;;;5408992;26;20607;-76
2024/04/11 07:03:27;;;;;;;4.23;3.80;;;9.20;85.20;;;;;;5411435;26;20666;-76
2024/04/11 07:05:55;;;;;;;9.23;4.10;;;9.30;84.00;;;;;;5444736;26;21082;-76
2024/04/11 07:08:29;;;;;;;6.20;3.60;;;9.40;82.60;;;;;;5423043;26;20677;-75
2024/04/11 07:11:12;;;;;;;8.27;3.60;;;9.50;81.00;;;;;;5416289;26;20592;-76
2024/04/11 07:13:41;;;;;;;4.23;3.80;;;9.80;80.50;;;;;;5395412;26;20551;-78
2024/04/11 07:16:07;;;;;;;7.17;4.10;;;9.90;79.80;;;;;;5414467;26;20563;-76
2024/04/11 07:18:44;;;;;;;5.03;4.10;;;10.00;78.90;;;;;;5424838;26;20650;-75
2024/04/11 07:21:13;;;;;;;7.23;4.60;;;10.10;79.30;;;;;;5416293;26;20546;-76
2024/04/11 07:23:44;;;;;;;8.00;5.27;;;10.00;78.80;;;;;;5410560;26;20562;-76
2024/04/11 07:26:15;;;;;;;6.47;4.40;;;10.10;79.40;;;;;;5415739;26;21102;-76
2024/04/11 07:28:45;;;;;;;7.23;4.30;;;10.00;78.50;;;;;;5415996;26;20899;-76
2024/04/11 07:31:14;;;;;;;7.97;4.07;;;10.40;77.80;;;;;;5414246;26;20645;-76
2024/04/11 07:33:43;;;;;;;7.13;3.50;;;10.50;77.10;;;;;;5410953;26;21167;-76
2024/04/11 07:36:13;;;;;;;6.13;4.13;;;10.60;77.50;;;;;;5401677;26;20563;-76
2024/04/11 07:38:43;;;;;;;8.03;4.90;;;10.80;76.90;;;;;;5412025;26;21290;-76
2024/04/11 07:41:16;;;;;;;6.37;4.40;;;10.70;76.50;;;;;;5422538;26;20551;-76
2024/04/11 07:43:51;;;;;;;5.93;4.33;;;10.90;76.10;;;;;;5405890;26;21014;-76
2024/04/11 07:46:18;;;;;;;6.33;4.00;;;11.20;76.40;;;;;;5412475;26;20553;-77
2024/04/11 07:48:51;;;;;;;6.77;5.00;;;11.10;76.60;;;;;;5395172;26;20629;-76
2024/04/11 07:51:18;;;;;;;8.40;4.70;;;11.10;77.40;;;;;;5410100;26;20549;-76
2024/04/11 07:53:48;;;;;;;7.70;4.50;;;11.00;76.90;;;;;;5416103;26;20606;-76
2024/04/11 07:56:19;;;;;;;10.27;4.20;;;11.30;77.50;;;;;;5413662;26;20587;-74
2024/04/11 07:58:53;;;;;;;10.30;4.70;;;11.60;76.30;;;;;;5407133;26;21184;-76
2024/04/11 08:01:22;;;;;;;5.40;4.10;;;11.70;75.10;;;;;;5398791;26;21032;-77
2024/04/11 08:03:51;;;;;;;9.93;5.27;;;11.90;74.70;;;;;;5413536;26;20554;-77
2024/04/11 08:06:18;;;;;;;8.60;4.50;;;11.90;75.00;;;;;;5404156;26;20546;-75
2024/04/11 08:08:48;;;;;;;11.10;4.37;;;12.10;74.50;;;;;;5414150;26;20567;-77
2024/04/11 08:11:15;;;;;;;6.50;4.63;;;12.30;74.20;;;;;;5410501;26;20545;-77
2024/04/11 08:13:45;;;;;;;9.97;5.83;;;12.40;73.00;;;;;;5414750;26;20597;-76
2024/04/11 08:16:15;;;;;;;14.27;5.97;;;12.50;71.80;;;;;;5414612;26;20531;-77
2024/04/11 08:18:44;;;;;;;7.27;5.13;;;12.60;71.50;;;;;;5407041;26;20901;-76
2024/04/11 08:21:13;;;;;;;12.63;5.73;;;12.40;72.50;;;;;;5409727;26;20531;-77
2024/04/11 08:23:43;;;;;;;10.87;5.67;;;12.70;73.10;;;;;;5418806;26;20553;-77
2024/04/11 08:26:12;;;;;;;6.20;4.30;;;12.80;72.40;;;;;;5410204;26;20613;-76
2024/04/11 08:28:43;;;;;;;7.07;4.70;;;12.90;70.40;;;;;;5414032;26;20550;-75
2024/04/11 08:31:11;;;;;;;10.30;5.70;;;12.80;70.20;;;;;;5419779;26;20598;-77
2024/04/11 08:33:42;;;;;;;6.93;4.30;;;13.00;70.90;;;;;;5412075;26;20546;-77
2024/04/11 08:36:10;;;;;;;8.30;4.67;;;13.20;69.70;;;;;;5419583;26;20541;-77
2024/04/11 08:38:40;;;;;;;9.50;4.77;;;13.30;69.40;;;;;;5408419;26;20583;-76
2024/04/11 08:41:08;;;;;;;8.57;4.90;;;13.10;67.90;;;;;;5416419;26;20950;-76
2024/04/11 08:43:38;;;;;;;8.00;4.53;;;13.20;67.90;;;;;;5402418;26;20552;-75
2024/04/11 08:46:08;;;;;;;11.17;3.90;;;13.30;66.70;;;;;;5408425;26;20552;-75
2024/04/11 08:48:39;;;;;;;7.10;4.43;;;13.40;66.10;;;;;;5401482;26;20552;-77
2024/04/11 08:51:14;;;;;;;8.37;4.30;;;13.50;65.50;;;;;;5429636;26;21162;-76
2024/04/11 08:53:47;;;;;;;8.60;4.27;;;13.50;64.60;;;;;;5410901;26;20561;-76
2024/04/11 08:56:14;;;;;;;7.63;3.87;;;13.50;65.70;;;;;;5426129;26;20648;-76
2024/04/11 08:58:45;;;;;;;8.33;4.43;;;13.50;66.70;;;;;;5415599;26;20615;-76
2024/04/11 09:01:15;;;;;;;8.73;4.33;;;13.60;67.30;;;;;;5429524;26;20602;-76
2024/04/11 09:03:46;;;;;;;9.00;4.27;;;13.80;65.60;;;;;;5412214;26;20599;-75
2024/04/11 09:06:18;;;;;;;12.30;3.90;;;13.90;64.80;;;;;;5432182;26;20550;-76
2024/04/11 09:08:49;;;;;;;9.70;4.20;;;13.90;65.80;;;;;;5414142;26;20552;-75
2024/04/11 09:11:16;;;;;;;7.80;4.47;;;13.90;65.80;;;;;;5418780;26;20548;-75
2024/04/11 09:13:46;;;;;;;9.73;3.40;;;13.90;65.30;;;;;;5420023;26;21069;-75
2024/04/11 09:16:21;;;;;;;10.20;4.37;;;13.90;65.00;;;;;;5411178;26;20653;-75
2024/04/11 09:18:50;;;;;;;11.63;4.50;;;14.10;63.60;;;;;;5403298;26;20604;-76
2024/04/11 09:21:18;;;;;;;10.20;3.73;;;14.30;63.80;;;;;;5421511;26;20605;-76
2024/04/11 09:23:49;;;;;;;10.83;2.77;;;14.00;62.10;;;;;;5423687;26;20647;-76
2024/04/11 09:26:17;;;;;;;5.67;2.10;;;14.20;61.70;;;;;;5410214;26;20934;-76
2024/04/11 09:28:48;;;;;;;7.67;2.57;;;14.20;59.70;;;;;;5414667;26;20562;-75
2024/04/11 09:31:18;;;;;;;7.27;2.80;;;14.20;58.50;;;;;;5413956;26;21137;-75
2024/04/11 09:33:49;;;;;;;7.40;2.70;;;14.40;59.60;;;;;;5409238;26;20657;-76
2024/04/11 09:36:20;;;;;;;8.70;3.00;;;14.50;59.00;;;;;;5416696;26;20598;-75
2024/04/11 09:38:53;;;;;;;7.33;2.63;;;14.50;59.00;;;;;;5436414;26;20634;-76
2024/04/11 09:41:21;;;;;;;7.30;2.60;;;14.60;58.50;;;;;;5417912;26;21202;-75
2024/04/11 09:43:55;;;;;;;9.47;2.70;;;14.50;57.50;;;;;;5412382;26;20547;-76
2024/04/11 09:46:23;;;;;;;8.27;2.90;;;14.40;58.90;;;;;;5422064;26;20597;-76
2024/04/11 09:48:54;;;;;;;8.00;2.93;;;14.60;59.40;;;;;;5422258;26;20562;-76
2024/04/11 09:51:23;;;;;;;8.37;3.33;;;14.80;58.90;;;;;;5414859;26;20569;-76
2024/04/11 09:53:52;;;;;;;9.90;3.90;;;14.90;59.30;;;;;;5413892;26;20570;-76
2024/04/11 09:56:21;;;;;;;7.83;3.10;;;15.00;59.20;;;;;;5415914;26;20547;-76
2024/04/11 09:58:51;;;;;;;9.17;2.80;;;15.00;58.70;;;;;;5418656;26;21078;-76
2024/04/11 10:01:30;;;;;;;8.37;2.87;;;15.00;58.60;;;;;;5411013;26;20547;-76
2024/04/11 10:04:13;;;;;;;9.40;3.30;;;15.30;59.20;;;;;;5417691;26;20539;-77
2024/04/11 10:06:44;;;;;;;10.20;3.53;;;15.30;58.90;;;;;;5412075;26;20928;-77
2024/04/11 10:09:17;;;;;;;8.80;2.57;;;15.40;58.60;;;;;;5412900;26;20603;-77
2024/04/11 10:11:45;;;;;;;10.00;2.73;;;15.50;56.70;;;;;;5414213;26;20555;-75
2024/04/11 10:14:20;;;;;;;8.73;2.83;;;15.50;55.30;;;;;;5424164;26;20635;-74
2024/04/11 10:16:48;;;;;;;9.87;2.97;;;15.60;55.20;;;;;;5403449;26;20662;-74
2024/04/11 10:19:26;;;;;;;9.97;3.57;;;15.60;56.10;;;;;;5400055;26;20618;-74
2024/04/11 10:22:01;;;;;;;10.73;2.60;;;15.70;54.60;;;;;;5415935;26;20584;-74
2024/04/11 10:24:31;;;;;;;9.33;2.80;;;15.80;54.70;;;;;;5414454;26;20606;-74
2024/04/11 10:27:09;;;;;;;15.47;3.27;;;16.00;54.90;;;;;;5403209;26;20613;-74
2024/04/11 10:29:43;;;;;;;14.50;3.27;;;16.00;54.50;;;;;;5409071;26;20919;-73
2024/04/11 10:32:14;;;;;;;8.27;2.43;;;16.00;53.90;;;;;;5413160;26;21100;-74
2024/04/11 10:34:47;;;;;;;10.10;2.60;;;16.20;53.70;;;;;;5412767;26;20559;-73
2024/04/11 10:37:23;;;;;;;10.40;2.60;;;16.40;53.10;;;;;;5408045;26;20553;-73
2024/04/11 10:39:54;;;;;;;9.40;2.80;;;16.30;50.60;;;;;;5402254;26;20552;-74
2024/04/11 10:42:36;;;;;;;9.23;2.63;;;16.30;51.70;;;;;;5402574;26;20600;-73
2024/04/11 10:45:07;;;;;;;10.30;2.67;;;16.40;51.00;;;;;;5418830;26;20553;-73
2024/04/11 10:47:35;;;;;;;12.70;3.47;;;16.60;51.10;;;;;;5406170;26;20877;-74
2024/04/11 10:50:09;;;;;;;11.40;3.13;;;16.50;52.40;;;;;;5416625;26;20582;-73
2024/04/11 10:52:38;;;;;;;12.67;4.00;;;16.50;53.30;;;;;;5406113;26;20543;-74
2024/04/11 10:55:12;;;;;;;12.80;3.93;;;16.40;53.50;;;;;;5416941;26;20605;-74
2024/04/11 10:57:42;;;;;;;10.37;3.90;;;16.50;54.50;;;;;;5420348;26;20652;-74
2024/04/11 11:00:22;;;;;;;18.40;4.00;;;16.60;54.90;;;;;;5417985;26;21198;-74
2024/04/11 11:03:11;;;;;;;11.27;3.00;;;16.80;55.20;;;;;;5412015;26;20541;-75
2024/04/11 11:05:42;;;;;;;12.40;3.90;;;17.00;53.70;;;;;;5401189;26;20622;-75
2024/04/11 11:08:12;;;;;;;13.60;4.07;;;16.90;53.70;;;;;;5411183;26;20645;-74
2024/04/11 11:10:42;;;;;;;12.00;4.17;;;17.00;53.10;;;;;;5400795;26;20570;-73
2024/04/11 11:13:08;;;;;;;11.77;3.43;;;17.10;53.40;;;;;;5411561;26;20615;-73
2024/04/11 11:15:37;;;;;;;14.20;3.33;;;17.30;53.10;;;;;;5413926;26;20605;-74
2024/04/11 11:18:06;;;;;;;12.77;3.57;;;17.30;52.90;;;;;;5419831;26;20574;-73
2024/04/11 11:20:35;;;;;;;11.80;4.10;;;17.40;53.30;;;;;;5419720;26;20644;-74
2024/04/11 11:23:03;;;;;;;9.57;3.20;;;17.30;51.50;;;;;;5412073;26;20540;-74
2024/04/11 11:25:38;;;;;;;12.90;3.13;;;17.00;51.20;;;;;;5420611;26;20607;-73
2024/04/11 11:28:12;;;;;;;16.17;3.20;;;17.00;51.40;;;;;;5411809;26;20641;-74
2024/04/11 11:30:48;;;;;;;15.50;3.77;;;17.20;51.50;;;;;;5418275;26;20543;-73
2024/04/11 11:33:17;;;;;;;12.50;3.07;;;17.40;51.40;;;;;;5413707;26;20592;-75
2024/04/11 11:35:47;;;;;;;13.13;3.90;;;17.80;51.40;;;;;;5408266;26;20898;-75
2024/04/11 11:38:14;;;;;;;15.53;3.90;;;18.20;50.40;;;;;;5406482;26;20962;-75
2024/04/11 11:40:46;;;;;;;14.00;3.17;;;18.10;49.60;;;;;;5407403;26;20563;-75
2024/04/11 11:43:16;;;;;;;13.57;3.60;;;18.10;49.70;;;;;;5414526;26;20984;-74
2024/04/11 11:46:17;;;;;;;12.47;3.27;;;18.20;48.70;;;;;;5411807;26;20551;-75
2024/04/11 11:48:35;;;;;;;16.17;3.83;;;18.20;48.70;;;;;;5412265;26;20551;-75
2024/04/11 11:51:05;;;;;;;15.30;2.70;;;18.90;49.10;;;;;;5418517;26;20555;-75
2024/04/11 11:53:32;;;;;;;15.73;3.53;;;19.10;49.50;;;;;;5414660;26;20951;-75
2024/04/11 11:56:06;;;;;;;18.20;3.63;;;19.40;46.40;;;;;;5410750;26;21092;-74
2024/04/11 11:58:35;;;;;;;14.80;2.43;;;19.90;47.80;;;;;;5411400;26;20563;-74
2024/04/11 12:01:19;;;;;;;15.10;3.33;;;21.00;46.10;;;;;;5414555;26;20899;-74
2024/04/11 12:03:45;;;;;;;13.00;3.40;;;21.90;44.30;;;;;;5411884;26;20661;-74
2024/04/11 12:06:14;;;;;;;11.70;2.57;;;22.10;43.80;;;;;;5396181;26;20622;-74
2024/04/11 12:08:43;;;;;;;9.53;2.80;;;22.80;42.50;;;;;;5401879;26;20624;-74
2024/04/11 12:11:21;;;;;;;5.30;1.90;;;23.50;42.30;;;;;;5418020;26;20977;-74
2024/04/11 12:13:51;;;;;;;5.27;2.13;;;23.40;40.90;;;;;;5421584;26;20547;-75
2024/04/11 12:16:20;;;;;;;2.83;1.60;;;23.30;41.10;;;;;;5413903;26;20931;-76
2024/04/11 12:18:46;;;;;;;3.47;2.30;;;22.40;40.60;;;;;;5425112;26;20589;-75
2024/04/11 12:21:25;;;;;;;4.43;2.30;;;21.60;41.10;;;;;;5406212;26;20659;-75
2024/04/11 12:23:52;;;;;;;3.73;2.10;;;20.90;41.80;;;;;;5409396;26;20576;-75
2024/04/11 12:26:23;;;;;;;6.00;2.10;;;20.70;43.60;;;;;;5416542;26;20554;-75
2024/04/11 12:28:50;;;;;;;3.87;1.83;;;20.30;43.90;;;;;;5424667;26;20535;-75
2024/04/11 12:31:21;;;;;;;6.60;2.40;;;19.90;43.80;;;;;;5394152;26;21024;-73
2024/04/11 12:33:48;;;;;;;7.10;2.73;;;19.50;44.10;;;;;;5414195;26;21087;-73
2024/04/11 12:39:12;;;;;;;10.23;3.10;;;19.00;43.90;;;;;;5398441;26;20560;-74
2024/04/11 12:41:41;;;;;;;14.90;2.90;;;18.80;44.80;;;;;;5393322;26;20548;-73
2024/04/11 12:44:11;;;;;;;13.63;3.17;;;18.80;46.30;;;;;;5394308;26;21311;-73
2024/04/11 12:46:39;;;;;;;14.60;3.37;;;18.70;46.90;;;;;;5382883;26;20543;-73
2024/04/11 12:49:25;;;;;;;15.83;2.87;;;18.30;45.80;;;;;;5401191;26;21037;-74
2024/04/11 12:51:55;;;;;;;16.10;3.20;;;18.00;45.90;;;;;;5394720;26;20559;-73
2024/04/11 12:54:26;;;;;;;15.10;2.73;;;18.90;47.40;;;;;;5420631;26;20727;-74
2024/04/11 12:57:02;;;;;;;14.50;2.40;;;20.30;45.20;;;;;;5424848;26;20546;-74
2024/04/11 12:59:30;;;;;;;14.20;3.37;;;22.10;44.40;;;;;;5415104;26;20547;-74
2024/04/11 13:01:59;;;;;;;10.27;2.97;;;23.50;43.60;;;;;;5411514;26;20650;-74
2024/04/11 13:04:28;;;;;;;5.33;1.77;;;24.60;42.90;;;;;;5416177;26;20635;-74
2024/04/11 13:07:01;;;;;;;4.00;1.80;;;25.40;41.80;;;;;;5410327;26;21015;-74
2024/04/11 13:09:34;;;;;;;6.57;2.17;;;26.00;41.10;;;;;;5406443;26;20563;-75
2024/04/11 13:12:12;;;;;;;3.60;1.77;;;26.30;40.30;;;;;;5426227;26;20627;-75